Time;durP1;ratioP1;P1;durP2;ratioP2;P2;SDS_P1;SDS_P2;PMS_P1;PMS_P2;Temp;Humidity;BMP_temperature;BMP_pressure;BME280_temperature;BME280_humidity;BME280_pressure;Samples;Min_cycle;Max_cycle;Signal;HPM_P1;HPM_P2
2022/08/13 00:00:59;;;;;;;10.38;5.70;;;;;;;23.32;64.21;94409.44;4952517;29;20198;-79
2022/08/13 00:03:28;;;;;;;6.13;5.63;;;;;;;23.40;64.35;94414.34;4935969;29;20768;-79
2022/08/13 00:05:55;;;;;;;9.30;5.45;;;;;;;23.38;64.55;94415.59;4933382;29;20593;-81
2022/08/13 00:08:25;;;;;;;9.30;4.97;;;;;;;23.37;64.52;94420.00;4961183;28;20589;-79
2022/08/13 00:10:52;;;;;;;7.82;5.35;;;;;;;23.36;65.09;94408.00;4993563;28;20638;-80
2022/08/13 00:13:18;;;;;;;8.73;5.70;;;;;;;23.34;65.20;94417.06;4993449;28;20199;-80
2022/08/13 00:15:47;;;;;;;5.90;5.40;;;;;;;23.31;65.38;94409.66;4994092;28;20268;-80
2022/08/13 00:18:18;;;;;;;8.00;5.65;;;;;;;23.31;65.17;94412.28;4993959;28;20193;-81
2022/08/13 00:20:48;;;;;;;6.40;5.57;;;;;;;23.25;65.56;94395.69;4993658;28;20196;-80
2022/08/13 00:23:16;;;;;;;6.53;5.93;;;;;;;23.28;65.59;94403.09;4993690;28;20216;-79
2022/08/13 00:25:44;;;;;;;8.55;5.60;;;;;;;23.29;65.73;94402.84;4993750;28;20185;-79
2022/08/13 00:28:14;;;;;;;8.27;5.78;;;;;;;23.27;65.72;94394.47;4994122;28;20192;-83
2022/08/13 00:30:41;;;;;;;7.95;5.72;;;;;;;23.18;65.77;94385.34;4994426;28;20633;-81
2022/08/13 00:33:10;;;;;;;10.98;6.05;;;;;;;23.10;65.80;94370.03;4993168;28;20231;-81
2022/08/13 00:35:41;;;;;;;9.40;6.18;;;;;;;23.26;65.60;94395.47;4993433;28;20213;-83
2022/08/13 00:38:13;;;;;;;8.65;5.35;;;;;;;23.27;65.86;94394.47;4993344;28;20229;-84
2022/08/13 00:40:43;;;;;;;5.78;5.18;;;;;;;23.17;65.61;94382.97;4993366;28;20189;-83
2022/08/13 00:43:10;;;;;;;5.65;5.15;;;;;;;23.28;65.11;94392.66;4993277;28;20199;-82
2022/08/13 00:45:37;;;;;;;6.70;5.30;;;;;;;23.32;64.41;94391.19;4993237;28;20609;-82
2022/08/13 00:50:48;;;;;;;7.68;5.82;;;;;;;23.32;64.02;94395.63;4980297;28;20201;-81
2022/08/13 00:53:18;;;;;;;5.90;5.30;;;;;;;23.29;64.86;94391.63;4993342;28;20278;-82
2022/08/13 00:55:48;;;;;;;9.73;6.18;;;;;;;23.27;64.67;94385.81;4993671;28;20205;-81
2022/08/13 00:58:16;;;;;;;6.70;6.00;;;;;;;23.23;64.80;94389.91;4992897;28;20663;-83
2022/08/13 01:00:47;;;;;;;7.50;5.75;;;;;;;23.15;64.66;94371.97;4993135;28;20189;-83
2022/08/13 01:03:15;;;;;;;6.30;5.70;;;;;;;23.22;64.87;94381.28;4992898;28;20200;-84
2022/08/13 01:05:43;;;;;;;6.03;5.43;;;;;;;23.21;65.27;94386.72;4992936;28;20197;-83
2022/08/13 01:08:16;;;;;;;7.07;5.53;;;;;;;23.19;65.27;94386.16;4992643;28;20275;-82
2022/08/13 01:10:44;;;;;;;8.32;6.35;;;;;;;23.16;65.44;94378.78;4992766;28;20629;-83
2022/08/13 01:13:13;;;;;;;8.23;6.13;;;;;;;23.16;65.54;94382.19;4992426;28;20196;-82
2022/08/13 01:15:42;;;;;;;6.03;5.38;;;;;;;23.13;65.87;94384.44;4992528;28;20741;-81
2022/08/13 01:18:12;;;;;;;6.97;5.72;;;;;;;23.13;65.84;94379.22;4992560;28;20199;-82
2022/08/13 01:20:45;;;;;;;6.15;5.53;;;;;;;23.12;65.84;94386.25;4992559;28;20576;-83
2022/08/13 01:23:14;;;;;;;6.38;5.80;;;;;;;22.96;65.66;94363.41;4992414;28;20188;-82
2022/08/13 01:25:42;;;;;;;6.05;5.45;;;;;;;23.09;65.71;94389.28;4992665;28;20201;-83
2022/08/13 01:28:09;;;;;;;6.28;5.30;;;;;;;23.06;65.49;94378.50;4992200;28;20189;-82
2022/08/13 01:30:41;;;;;;;6.30;5.07;;;;;;;23.09;65.78;94384.06;4992604;28;20692;-82
2022/08/13 01:33:09;;;;;;;6.43;5.68;;;;;;;22.94;65.56;94362.84;4992027;28;20221;-84
2022/08/13 01:35:37;;;;;;;7.20;5.95;;;;;;;23.03;65.82;94383.16;4992491;28;20311;-83
2022/08/13 01:38:04;;;;;;;7.10;6.40;;;;;;;23.02;65.69;94380.78;4992520;28;20296;-84
2022/08/13 01:40:33;;;;;;;7.47;5.28;;;;;;;23.01;65.84;94376.56;4994472;28;20204;-84
2022/08/13 01:43:01;;;;;;;5.88;5.38;;;;;;;22.95;66.14;94367.03;4996282;28;20652;-83
2022/08/13 01:45:30;;;;;;;5.47;4.97;;;;;;;23.02;66.22;94371.16;4992898;28;20197;-81
2022/08/13 01:50:42;;;;;;;6.05;5.53;;;;;;;23.06;65.86;94371.50;4992364;28;20188;-83
2022/08/13 01:53:11;;;;;;;5.88;5.18;;;;;;;23.03;65.51;94369.31;4991700;28;20764;-83
2022/08/13 01:55:41;;;;;;;6.90;5.53;;;;;;;23.04;65.39;94363.09;4992126;28;20224;-83
2022/08/13 01:58:11;;;;;;;5.43;4.93;;;;;;;23.06;65.25;94368.88;4991797;28;20196;-83
2022/08/13 02:00:40;;;;;;;8.30;5.45;;;;;;;23.02;65.04;94363.31;4991021;28;20303;-84
2022/08/13 02:03:11;;;;;;;5.05;4.65;;;;;;;23.08;65.64;94356.41;4991655;28;20208;-82
2022/08/13 02:05:39;;;;;;;5.72;5.20;;;;;;;23.04;66.26;94357.88;4991792;28;20276;-82
2022/08/13 02:08:07;;;;;;;6.07;4.97;;;;;;;23.05;66.46;94351.63;4991488;28;20205;-82
2022/08/13 02:10:35;;;;;;;6.32;5.00;;;;;;;23.01;66.80;94346.09;4992196;28;20205;-82
2022/08/13 02:13:05;;;;;;;6.05;5.43;;;;;;;23.03;66.75;94351.06;4991440;28;20189;-82
2022/08/13 02:15:33;;;;;;;6.93;5.57;;;;;;;23.03;67.07;94358.91;4991598;28;20213;-82
2022/08/13 02:18:03;;;;;;;5.88;5.10;;;;;;;23.03;66.60;94357.06;4991844;28;20193;-83
2022/08/13 02:20:32;;;;;;;7.50;6.05;;;;;;;22.92;66.97;94334.34;4991493;28;20269;-82
2022/08/13 02:23:00;;;;;;;6.75;5.53;;;;;;;23.06;66.94;94355.84;4991198;28;20236;-82
2022/08/13 02:25:29;;;;;;;6.15;5.30;;;;;;;23.08;67.01;94358.22;4991241;28;20193;-85
2022/08/13 02:27:56;;;;;;;5.72;5.22;;;;;;;23.09;66.88;94365.03;4991283;28;20673;-83
2022/08/13 02:30:26;;;;;;;6.00;5.40;;;;;;;23.06;67.02;94358.47;4991129;28;20197;-82
2022/08/13 02:32:53;;;;;;;8.65;5.25;;;;;;;23.07;67.20;94367.06;4991423;28;20604;-85
2022/08/13 02:35:21;;;;;;;6.15;5.22;;;;;;;23.06;67.46;94363.69;4991219;28;20685;-82
2022/08/13 02:37:48;;;;;;;6.70;5.55;;;;;;;22.88;67.64;94335.00;4991185;28;20193;-79
2022/08/13 02:43:02;;;;;;;6.25;5.60;;;;;;;22.96;67.62;94352.97;4991069;28;20533;-85
2022/08/13 02:45:30;;;;;;;5.53;5.13;;;;;;;22.97;67.70;94363.19;4990998;28;20272;-85
2022/08/13 02:47:58;;;;;;;9.15;8.18;;;;;;;23.00;67.58;94364.53;4990876;28;20256;-82
2022/08/13 02:50:27;;;;;;;15.10;11.57;;;;;;;23.00;67.76;94357.50;4990637;28;20205;-82
2022/08/13 02:52:54;;;;;;;16.83;14.43;;;;;;;22.89;67.75;94336.59;4990698;28;20227;-82
2022/08/13 02:55:23;;;;;;;21.48;14.05;;;;;;;23.04;67.63;94360.47;4990721;28;20288;-82
2022/08/13 02:57:51;;;;;;;26.17;18.75;;;;;;;23.04;67.77;94363.88;4990513;28;20201;-82
2022/08/13 03:00:20;;;;;;;19.85;14.60;;;;;;;23.02;68.28;94359.91;4990044;28;20580;-81
2022/08/13 03:02:49;;;;;;;14.75;10.65;;;;;;;23.02;67.96;94354.69;4990748;28;20207;-83
2022/08/13 03:05:18;;;;;;;8.00;7.20;;;;;;;23.00;68.38;94356.72;4990496;28;20197;-82
2022/08/13 03:07:47;;;;;;;8.52;6.50;;;;;;;23.01;68.14;94356.53;4990516;28;20194;-82
2022/08/13 03:10:16;;;;;;;7.05;6.22;;;;;;;22.97;68.25;94351.94;4990520;28;20256;-83
2022/08/13 03:12:46;;;;;;;7.47;5.38;;;;;;;22.98;68.06;94362.16;4990459;28;20573;-82
2022/08/13 03:15:16;;;;;;;9.43;5.47;;;;;;;22.99;68.06;94368.97;4990623;28;20312;-83
2022/08/13 03:17:44;;;;;;;6.70;5.75;;;;;;;22.94;68.06;94355.81;4990616;28;20193;-84
2022/08/13 03:20:16;;;;;;;6.95;6.25;;;;;;;23.03;68.16;94362.28;4990097;28;20193;-83
2022/08/13 03:22:51;;;;;;;6.13;5.53;;;;;;;22.97;67.98;94363.19;4990598;28;20299;-83
2022/08/13 03:25:18;;;;;;;5.93;5.40;;;;;;;22.95;67.76;94364.44;4990420;28;20192;-83
2022/08/13 03:27:45;;;;;;;5.78;5.22;;;;;;;22.97;67.87;94371.03;4990791;28;20200;-81
2022/08/13 03:30:14;;;;;;;8.75;4.65;;;;;;;22.99;67.35;94371.59;4990415;28;20249;-83
2022/08/13 03:32:42;;;;;;;7.78;5.25;;;;;;;23.00;66.64;94375.78;4990453;28;20229;-84
2022/08/13 03:35:13;;;;;;;5.43;4.93;;;;;;;22.93;66.21;94371.69;4989591;28;20229;-83
2022/08/13 03:37:42;;;;;;;6.20;5.20;;;;;;;22.89;66.41;94376.50;4990371;28;20193;-83
2022/08/13 03:40:11;;;;;;;5.68;5.25;;;;;;;22.84;66.85;94376.38;4989895;28;20185;-83
2022/08/13 03:42:40;;;;;;;5.55;5.07;;;;;;;22.80;66.47;94375.25;4990171;28;20197;-82
2022/08/13 03:45:08;;;;;;;5.72;4.57;;;;;;;22.79;66.44;94373.63;4989773;28;20197;-82
2022/08/13 03:47:35;;;;;;;7.43;4.88;;;;;;;22.74;66.64;94374.28;4990775;28;20594;-82
2022/08/13 03:50:04;;;;;;;5.90;4.60;;;;;;;22.80;66.34;94370.03;4990143;28;20184;-83
2022/08/13 03:52:33;;;;;;;5.53;4.93;;;;;;;22.73;66.72;94370.09;4989955;28;20586;-82
2022/08/13 03:55:01;;;;;;;8.65;4.85;;;;;;;22.74;66.51;94389.94;4989889;28;20696;-79
2022/08/13 03:57:28;;;;;;;5.75;4.40;;;;;;;22.74;66.80;94382.09;4990158;28;20208;-82
2022/08/13 03:59:55;;;;;;;4.90;4.38;;;;;;;22.73;66.55;94374.53;4990034;28;20193;-80
2022/08/13 04:02:22;;;;;;;7.60;4.50;;;;;;;22.76;66.39;94374.09;4989571;28;20657;-81
2022/08/13 04:04:50;;;;;;;5.47;4.72;;;;;;;22.78;66.38;94379.88;4989980;28;20197;-81
2022/08/13 04:07:19;;;;;;;4.90;4.40;;;;;;;22.79;66.43;94377.03;4989755;28;20185;-83
2022/08/13 04:09:48;;;;;;;5.93;5.00;;;;;;;22.67;66.11;94378.03;4989625;28;20809;-82
2022/08/13 04:12:15;;;;;;;5.82;5.10;;;;;;;22.64;66.28;94378.44;4989665;28;20204;-82
2022/08/13 04:14:43;;;;;;;6.85;5.03;;;;;;;22.61;66.06;94366.63;4990037;28;20743;-81
2022/08/13 04:17:11;;;;;;;9.55;5.25;;;;;;;22.54;65.84;94364.13;4990082;28;20209;-81
2022/08/13 04:19:38;;;;;;;8.27;5.43;;;;;;;22.64;65.99;94381.84;4990548;28;20189;-80
2022/08/13 04:22:06;;;;;;;8.48;4.97;;;;;;;22.53;66.18;94382.56;4989540;28;20212;-83
2022/08/13 04:24:33;;;;;;;8.32;5.75;;;;;;;22.47;66.35;94371.22;4993363;28;20669;-80
2022/08/13 04:27:03;;;;;;;8.90;5.65;;;;;;;22.42;66.49;94375.50;4993642;28;20336;-82
2022/08/13 04:29:30;;;;;;;6.03;5.47;;;;;;;22.47;66.68;94381.66;4996228;28;20223;-82
2022/08/13 04:31:59;;;;;;;6.07;5.47;;;;;;;22.56;66.46;94378.75;4995224;28;20190;-79
2022/08/13 04:34:27;;;;;;;7.90;5.90;;;;;;;22.46;66.80;94376.66;4994246;28;20204;-82
2022/08/13 04:36:54;;;;;;;9.55;5.50;;;;;;;22.38;66.98;94369.94;4993316;28;20213;-82
2022/08/13 04:39:22;;;;;;;8.73;6.50;;;;;;;22.19;67.91;94373.53;4992972;28;20653;-84
2022/08/13 04:41:49;;;;;;;8.48;5.32;;;;;;;22.24;67.78;94377.13;4992895;28;20197;-80
2022/08/13 04:44:17;;;;;;;8.48;5.50;;;;;;;22.25;67.27;94377.91;4992674;28;20579;-82
2022/08/13 04:46:44;;;;;;;6.68;5.50;;;;;;;22.25;67.30;94381.31;4992704;28;20685;-84
2022/08/13 04:49:11;;;;;;;6.15;5.50;;;;;;;22.25;67.33;94381.31;4992633;28;20667;-83
2022/08/13 04:51:38;;;;;;;7.90;5.47;;;;;;;22.37;67.35;94375.38;4992777;28;20197;-80
2022/08/13 04:54:06;;;;;;;6.32;5.03;;;;;;;22.34;67.16;94366.16;4992460;28;20193;-83
2022/08/13 04:56:33;;;;;;;12.77;5.70;;;;;;;22.38;67.44;94380.34;4992738;28;20229;-83
2022/08/13 04:59:00;;;;;;;8.18;5.70;;;;;;;22.32;67.68;94380.41;4992462;28;20229;-80
2022/08/13 05:01:29;;;;;;;6.47;5.88;;;;;;;22.25;67.75;94359.66;4992775;28;20189;-82
2022/08/13 05:03:56;;;;;;;8.23;5.18;;;;;;;22.10;67.70;94339.16;4994593;28;20251;-80
2022/08/13 05:06:23;;;;;;;7.47;5.30;;;;;;;22.38;67.81;94371.75;4994970;28;20263;-81
2022/08/13 05:08:51;;;;;;;5.38;4.88;;;;;;;22.33;67.93;94364.59;4994268;28;20572;-83
2022/08/13 05:11:19;;;;;;;6.32;5.82;;;;;;;22.33;68.34;94382.81;4994632;28;20200;-84
2022/08/13 05:13:47;;;;;;;6.70;5.72;;;;;;;22.21;69.10;94380.13;4993434;28;20193;-82
2022/08/13 05:16:16;;;;;;;8.07;5.80;;;;;;;22.16;69.14;94380.00;4992166;28;20216;-83
2022/08/13 05:18:46;;;;;;;6.93;6.22;;;;;;;22.17;69.72;94375.59;4992302;28;20197;-80
2022/08/13 05:21:14;;;;;;;7.00;5.38;;;;;;;22.06;69.83;94358.81;4992165;28;20193;-81
2022/08/13 05:23:42;;;;;;;7.65;5.32;;;;;;;22.28;69.67;94375.66;4992337;28;20204;-84
2022/08/13 05:26:10;;;;;;;6.80;6.10;;;;;;;22.28;69.84;94372.25;4992136;28;20205;-82
2022/08/13 05:28:37;;;;;;;6.85;5.68;;;;;;;22.32;69.67;94372.59;4992166;28;20193;-82
2022/08/13 05:31:05;;;;;;;8.88;5.75;;;;;;;22.33;69.81;94375.00;4992206;28;20220;-84
2022/08/13 05:33:34;;;;;;;8.65;6.18;;;;;;;21.99;69.42;94306.81;4991157;28;20228;-82
2022/08/13 05:36:05;;;;;;;5.95;5.32;;;;;;;22.47;69.36;94376.44;4991300;28;20227;-82
2022/08/13 05:38:34;;;;;;;8.40;6.70;;;;;;;22.50;69.36;94375.22;4991947;28;20196;-82
2022/08/13 05:41:03;;;;;;;7.65;6.90;;;;;;;22.58;69.14;94380.09;4992001;28;20236;-82
2022/08/13 05:43:33;;;;;;;8.48;6.90;;;;;;;22.65;68.95;94386.03;4991919;28;20263;-85
2022/08/13 05:46:03;;;;;;;9.52;6.65;;;;;;;22.62;68.99;94376.03;4991712;28;20284;-82
2022/08/13 05:48:32;;;;;;;8.43;7.05;;;;;;;22.62;69.34;94383.88;4991692;28;20232;-79
2022/08/13 05:51:03;;;;;;;7.53;6.82;;;;;;;22.60;69.50;94385.91;4991455;28;20201;-82
2022/08/13 05:53:32;;;;;;;12.45;6.28;;;;;;;22.59;69.61;94386.94;4991529;28;20192;-82
2022/08/13 05:55:59;;;;;;;8.52;5.65;;;;;;;22.66;69.55;94385.03;4991289;28;20319;-83
2022/08/13 05:58:26;;;;;;;10.80;6.28;;;;;;;22.68;69.54;94383.00;4991903;28;20181;-82
2022/08/13 06:03:39;;;;;;;7.38;6.13;;;;;;;22.73;69.38;94384.94;4991748;28;20333;-82
2022/08/13 06:06:10;;;;;;;8.68;5.93;;;;;;;22.88;68.48;94377.50;4991339;28;20664;-82
2022/08/13 06:08:38;;;;;;;6.82;6.15;;;;;;;22.76;67.69;94376.69;4991514;28;20200;-83
2022/08/13 06:11:07;;;;;;;8.13;5.82;;;;;;;22.67;67.88;94378.03;4991579;28;20217;-82
2022/08/13 06:13:37;;;;;;;6.75;6.15;;;;;;;22.77;67.83;94373.84;4991910;28;20189;-82
2022/08/13 06:16:06;;;;;;;9.27;6.47;;;;;;;22.64;67.86;94378.44;4991778;28;20216;-83
2022/08/13 06:18:36;;;;;;;8.68;6.20;;;;;;;22.32;68.78;94357.75;4991992;28;20585;-82
2022/08/13 06:21:06;;;;;;;7.40;6.70;;;;;;;22.47;69.11;94386.84;4991126;28;20197;-85
2022/08/13 06:23:38;;;;;;;7.00;6.30;;;;;;;22.51;69.07;94382.00;4991252;28;20200;-82
2022/08/13 06:26:09;;;;;;;6.07;5.57;;;;;;;22.54;69.09;94379.78;4990748;28;20197;-81
2022/08/13 06:28:37;;;;;;;6.97;6.38;;;;;;;22.53;69.12;94388.59;4991207;28;20192;-84
2022/08/13 06:31:06;;;;;;;12.35;6.80;;;;;;;22.37;69.25;94354.53;4990729;28;20904;-82
2022/08/13 06:33:35;;;;;;;9.43;6.53;;;;;;;22.59;69.50;94383.53;4990646;28;20653;-81
2022/08/13 06:36:05;;;;;;;7.95;6.25;;;;;;;22.63;69.32;94376.88;4990789;28;20316;-82
2022/08/13 06:38:35;;;;;;;7.00;6.30;;;;;;;22.70;69.25;94383.56;4991803;28;20200;-83
2022/08/13 06:41:06;;;;;;;12.73;7.22;;;;;;;22.74;68.70;94382.09;4990915;28;20704;-83
2022/08/13 06:43:37;;;;;;;8.18;7.38;;;;;;;22.85;68.31;94380.56;4990996;28;20193;-82
2022/08/13 06:46:05;;;;;;;10.48;6.65;;;;;;;22.84;68.65;94379.00;4990073;28;20193;-82
2022/08/13 06:48:33;;;;;;;8.80;7.15;;;;;;;22.90;68.82;94378.13;4990855;28;21002;-82
2022/08/13 06:51:01;;;;;;;11.43;7.53;;;;;;;22.89;68.17;94373.13;4990069;28;20288;-81
2022/08/13 06:53:28;;;;;;;7.50;6.65;;;;;;;22.94;68.00;94371.47;4990598;28;20632;-82
2022/08/13 06:55:56;;;;;;;7.65;6.85;;;;;;;23.07;67.89;94377.50;4990021;28;20217;-82
2022/08/13 06:58:28;;;;;;;8.85;7.00;;;;;;;22.95;67.69;94349.56;4990633;28;20191;-83
2022/08/13 07:00:55;;;;;;;12.07;6.53;;;;;;;23.18;67.36;94379.34;4990007;28;20193;-82
2022/08/13 07:03:26;;;;;;;12.23;7.25;;;;;;;23.15;67.43;94378.00;4990312;28;20668;-83
2022/08/13 07:05:54;;;;;;;7.45;6.68;;;;;;;23.14;67.05;94381.59;4990444;28;20204;-82
2022/08/13 07:08:22;;;;;;;6.93;6.28;;;;;;;23.15;67.45;94375.38;4990277;28;20193;-81
2022/08/13 07:11:21;;;;;;;6.88;6.10;;;;;;;23.18;67.45;94376.72;4990373;28;20212;-82
2022/08/13 07:13:41;;;;;;;7.07;6.38;;;;;;;23.31;67.19;94384.34;4990291;28;20197;-81
2022/08/13 07:16:10;;;;;;;11.65;6.53;;;;;;;23.32;67.32;94380.75;4989961;28;20239;-84
2022/08/13 07:18:37;;;;;;;9.20;6.55;;;;;;;23.24;67.24;94366.22;4990185;28;20189;-81
2022/08/13 07:21:09;;;;;;;7.43;6.65;;;;;;;23.40;67.21;94377.81;4989903;28;20871;-83
2022/08/13 07:23:37;;;;;;;13.55;7.47;;;;;;;23.62;67.00;94385.06;4990071;28;20223;-83
2022/08/13 07:26:05;;;;;;;12.32;8.68;;;;;;;23.24;67.95;94360.19;4989675;28;20201;-82
2022/08/13 07:28:34;;;;;;;11.20;7.47;;;;;;;23.30;67.90;94359.28;4989761;28;20189;-84
2022/08/13 07:31:06;;;;;;;8.43;7.53;;;;;;;23.45;67.70;94393.59;4989664;28;20200;-83
2022/08/13 07:33:35;;;;;;;11.95;7.95;;;;;;;23.49;67.49;94394.72;4989804;28;20260;-84
2022/08/13 07:36:04;;;;;;;9.52;7.57;;;;;;;23.57;67.10;94387.56;4989541;28;20735;-82
2022/08/13 07:38:31;;;;;;;9.68;7.30;;;;;;;23.68;66.35;94384.22;4990028;28;20200;-83
2022/08/13 07:41:01;;;;;;;9.13;8.23;;;;;;;23.60;66.83;94381.91;4989652;28;20284;-84
2022/08/13 07:43:32;;;;;;;8.50;7.68;;;;;;;23.62;67.01;94379.84;4989929;28;20310;-82
2022/08/13 07:46:05;;;;;;;7.75;7.05;;;;;;;23.62;67.16;94377.25;4989649;28;20196;-82
2022/08/13 07:48:33;;;;;;;10.82;7.88;;;;;;;23.67;66.83;94385.25;4990037;28;20181;-81
2022/08/13 07:51:01;;;;;;;9.85;7.72;;;;;;;23.64;66.95;94390.88;4990199;28;20192;-84
2022/08/13 07:53:28;;;;;;;9.07;7.22;;;;;;;23.71;66.79;94389.78;4990377;28;20200;-84
2022/08/13 07:55:55;;;;;;;8.93;7.05;;;;;;;23.72;67.06;94383.53;4990178;28;20217;-85
2022/08/13 07:58:27;;;;;;;14.00;7.78;;;;;;;23.68;67.01;94355.50;4992621;28;20196;-84
2022/08/13 08:00:57;;;;;;;10.85;7.82;;;;;;;23.84;66.24;94388.78;4994351;28;20192;-83
2022/08/13 08:03:30;;;;;;;9.30;7.28;;;;;;;23.83;66.33;94376.72;4993987;28;20181;-82
2022/08/13 08:05:58;;;;;;;13.55;7.78;;;;;;;23.94;66.11;94381.16;4994293;28;20203;-83
2022/08/13 08:08:26;;;;;;;8.73;7.28;;;;;;;23.98;65.45;94376.28;4994657;28;20208;-81
2022/08/13 08:10:54;;;;;;;8.25;7.45;;;;;;;23.96;65.88;94379.13;4993991;28;20204;-83
2022/08/13 08:13:20;;;;;;;8.25;7.13;;;;;;;24.00;65.67;94369.00;4993937;28;20197;-82
2022/08/13 08:15:48;;;;;;;8.20;7.30;;;;;;;24.05;65.56;94382.19;4995612;28;20281;-83
2022/08/13 08:18:15;;;;;;;9.00;7.10;;;;;;;24.08;65.66;94370.47;4993933;28;20676;-83
2022/08/13 08:20:44;;;;;;;9.82;6.75;;;;;;;24.15;65.29;94381.59;4995187;28;20189;-84
2022/08/13 08:23:11;;;;;;;10.48;6.93;;;;;;;24.19;65.43;94380.91;4998205;28;20196;-84
2022/08/13 08:25:41;;;;;;;10.43;7.80;;;;;;;24.01;65.58;94381.06;4995237;28;20181;-83
2022/08/13 08:28:10;;;;;;;7.68;6.88;;;;;;;24.06;65.62;94383.75;4994146;28;20199;-83
2022/08/13 08:30:38;;;;;;;8.77;7.10;;;;;;;24.13;65.68;94383.63;4995040;28;20200;-83
2022/08/13 08:33:05;;;;;;;10.48;7.55;;;;;;;24.07;65.88;94381.94;4994380;28;20261;-83
2022/08/13 08:35:33;;;;;;;9.85;7.03;;;;;;;24.10;65.84;94378.88;4995032;28;20205;-82
2022/08/13 08:43:35;;;;;;;9.48;8.55;;;;;;;24.10;64.97;94373.66;4993299;28;20200;-84
2022/08/13 08:46:03;;;;;;;10.13;9.13;;;;;;;23.97;65.61;94372.88;4993329;28;20580;-84
2022/08/13 08:48:32;;;;;;;9.13;8.23;;;;;;;24.10;65.05;94374.44;4995497;28;20196;-83
2022/08/13 08:51:00;;;;;;;8.48;7.68;;;;;;;24.03;65.44;94347.63;4994986;28;20192;-82
2022/08/13 08:53:30;;;;;;;12.95;7.88;;;;;;;24.15;65.87;94371.16;4994089;28;20200;-80
2022/08/13 08:55:56;;;;;;;8.80;7.30;;;;;;;24.26;65.74;94363.25;4993642;28;20226;-81
2022/08/13 08:58:24;;;;;;;10.93;8.60;;;;;;;24.12;65.41;94371.59;4993517;28;20197;-83
2022/08/13 09:00:56;;;;;;;10.00;7.50;;;;;;;23.95;65.83;94350.59;4992936;28;20216;-81
2022/08/13 09:03:31;;;;;;;10.82;6.95;;;;;;;24.14;65.78;94375.59;4994501;28;20280;-83
2022/08/13 09:06:07;;;;;;;8.13;7.35;;;;;;;24.20;66.12;94368.63;4996594;28;20649;-83
2022/08/13 09:08:46;;;;;;;11.07;6.95;;;;;;;24.25;66.30;94363.50;5011248;28;20193;-83
2022/08/13 09:11:19;;;;;;;8.70;7.45;;;;;;;24.29;66.42;94368.03;4995458;28;20220;-84
2022/08/13 09:13:49;;;;;;;8.60;7.70;;;;;;;24.28;66.72;94368.28;4994281;28;20189;-82
2022/08/13 09:16:17;;;;;;;8.30;7.50;;;;;;;24.19;67.12;94354.00;4992707;28;20279;-83
2022/08/13 09:18:45;;;;;;;7.45;6.65;;;;;;;24.23;68.47;94366.34;4992556;28;20196;-81
2022/08/13 09:21:12;;;;;;;8.45;7.53;;;;;;;24.20;70.32;94361.59;4992689;28;20193;-81
2022/08/13 09:23:47;;;;;;;15.63;8.50;;;;;;;24.18;72.43;94368.88;4992356;28;20665;-84
2022/08/13 09:26:17;;;;;;;9.65;7.80;;;;;;;24.17;73.24;94377.72;4992742;28;20661;-82
2022/08/13 09:28:45;;;;;;;12.07;9.05;;;;;;;24.10;74.51;94371.03;4992449;28;20252;-83
2022/08/13 09:31:12;;;;;;;10.00;8.13;;;;;;;24.06;77.14;94372.53;4992606;28;20656;-85
2022/08/13 09:33:39;;;;;;;13.95;7.93;;;;;;;23.99;78.35;94380.47;4992396;28;20256;-82
2022/08/13 09:36:09;;;;;;;10.98;8.45;;;;;;;23.93;78.06;94369.13;4992472;28;20192;-81
2022/08/13 09:38:37;;;;;;;11.48;8.82;;;;;;;23.72;79.09;94338.34;4992783;28;20189;-85
2022/08/13 09:41:17;;;;;;;15.40;12.02;;;;;;;23.99;78.75;94372.63;4992460;28;20189;-84
2022/08/13 09:43:45;;;;;;;37.80;26.85;;;;;;;24.12;77.86;94367.16;4992561;28;20201;-82
2022/08/13 09:46:15;;;;;;;50.00;37.88;;;;;;;24.19;78.24;94364.44;4992754;28;20661;-82
2022/08/13 09:48:42;;;;;;;33.90;25.50;;;;;;;24.24;77.53;94359.31;4991635;28;20256;-83
2022/08/13 09:51:13;;;;;;;31.48;23.52;;;;;;;24.29;78.29;94368.03;4992056;28;20197;-85
2022/08/13 09:53:40;;;;;;;17.65;14.02;;;;;;;24.24;78.43;94347.03;4992298;28;20197;-83
2022/08/13 09:56:08;;;;;;;22.77;17.15;;;;;;;24.36;78.29;94367.94;4992399;28;20189;-83
2022/08/13 09:58:35;;;;;;;16.45;14.70;;;;;;;24.35;78.36;94357.69;4991715;28;20572;-84
2022/08/13 10:01:02;;;;;;;18.02;12.93;;;;;;;24.43;78.22;94368.59;4992046;28;20216;-83
2022/08/13 10:03:29;;;;;;;14.30;11.98;;;;;;;24.39;78.22;94353.63;4991234;28;20200;-83
2022/08/13 10:05:56;;;;;;;10.10;9.10;;;;;;;24.38;79.38;94360.66;4991495;28;20193;-82
2022/08/13 10:08:24;;;;;;;11.50;9.50;;;;;;;24.23;79.46;94355.13;4991571;28;20208;-82
2022/08/13 10:10:51;;;;;;;10.43;9.32;;;;;;;24.20;80.24;94363.41;4991747;28;20212;-83
2022/08/13 10:13:19;;;;;;;11.02;9.85;;;;;;;24.13;80.02;94355.69;4991429;28;20779;-81
2022/08/13 10:15:46;;;;;;;11.60;9.07;;;;;;;23.96;80.11;94350.38;4991700;28;20189;-80
2022/08/13 10:18:13;;;;;;;10.30;9.35;;;;;;;23.93;81.93;94356.06;4991103;28;20235;-82
2022/08/13 10:20:45;;;;;;;10.27;9.18;;;;;;;23.88;82.56;94369.00;4991185;28;20196;-83
2022/08/13 10:23:14;;;;;;;10.68;9.57;;;;;;;23.65;82.96;94322.78;4991603;28;20201;-83
2022/08/13 10:25:42;;;;;;;11.30;10.10;;;;;;;23.81;83.68;94351.88;4991909;28;20197;-83
2022/08/13 10:28:16;;;;;;;13.50;9.07;;;;;;;23.74;84.94;94351.97;4991364;28;20213;-84
2022/08/13 10:30:46;;;;;;;14.65;11.30;;;;;;;23.63;86.12;94345.72;4991194;28;20185;-82
2022/08/13 10:33:13;;;;;;;17.25;11.07;;;;;;;23.61;85.78;94349.56;4991418;28;20704;-83
2022/08/13 10:35:40;;;;;;;13.40;11.60;;;;;;;23.64;84.73;94349.13;4991695;28;20255;-83
2022/08/13 10:38:07;;;;;;;14.25;12.05;;;;;;;23.64;83.21;94349.91;4991652;28;20593;-83
2022/08/13 10:40:34;;;;;;;14.25;11.32;;;;;;;23.61;84.76;94347.72;4991595;28;20217;-82
2022/08/13 10:43:01;;;;;;;13.00;11.48;;;;;;;23.64;84.63;94347.28;4991293;28;20185;-81
2022/08/13 10:45:29;;;;;;;11.80;10.73;;;;;;;23.62;85.74;94341.50;4991633;28;20193;-82
2022/08/13 10:47:57;;;;;;;15.82;12.05;;;;;;;23.50;86.11;94323.22;4991930;28;20283;-82
2022/08/13 10:50:29;;;;;;;12.25;10.90;;;;;;;23.56;87.46;94347.63;4991429;28;20197;-83
2022/08/13 10:52:56;;;;;;;14.07;11.88;;;;;;;23.52;87.95;94349.88;4991795;28;20197;-84
2022/08/13 10:55:24;;;;;;;11.85;10.48;;;;;;;23.50;87.40;94348.53;4991194;28;20231;-82
2022/08/13 10:57:51;;;;;;;11.90;10.38;;;;;;;23.43;88.73;94346.03;4990946;28;20279;-82
2022/08/13 11:00:19;;;;;;;11.05;9.93;;;;;;;23.45;88.51;94346.63;4991240;28;20216;-81
2022/08/13 11:02:50;;;;;;;11.57;9.95;;;;;;;23.49;87.85;94347.75;4991752;28;20224;-84
2022/08/13 11:05:20;;;;;;;11.73;10.52;;;;;;;23.53;88.76;94341.06;4991247;28;20193;-83
2022/08/13 11:07:47;;;;;;;13.80;10.50;;;;;;;23.54;89.14;94347.88;4991476;28;20581;-84
2022/08/13 11:10:14;;;;;;;11.65;9.88;;;;;;;23.54;88.75;94350.47;4990662;28;20223;-81
2022/08/13 11:12:50;;;;;;;11.27;10.07;;;;;;;23.43;88.97;94322.53;4991312;28;20201;-81
2022/08/13 11:15:17;;;;;;;12.15;10.23;;;;;;;23.62;89.27;94346.75;4990834;28;20223;-83
2022/08/13 11:17:48;;;;;;;13.35;9.00;;;;;;;23.63;88.44;94339.69;4990428;28;20224;-83
2022/08/13 11:20:18;;;;;;;12.35;9.15;;;;;;;23.66;87.59;94337.47;4990498;28;20221;-82
2022/08/13 11:22:50;;;;;;;9.23;8.32;;;;;;;23.68;86.85;94345.06;4990631;28;20189;-82
2022/08/13 11:25:18;;;;;;;9.90;8.80;;;;;;;23.66;87.55;94336.63;4990377;28;20299;-81
2022/08/13 11:27:45;;;;;;;9.88;8.82;;;;;;;23.54;87.33;94313.94;4990723;28;20573;-83
2022/08/13 11:30:13;;;;;;;12.05;9.23;;;;;;;23.69;87.57;94325.75;4990126;28;20551;-82
2022/08/13 11:32:40;;;;;;;9.80;8.82;;;;;;;23.73;87.20;94326.88;4991328;28;20367;-82
2022/08/13 11:35:09;;;;;;;10.82;9.70;;;;;;;23.75;85.02;94333.47;5213104;23;20722;-81
2022/08/13 11:37:36;;;;;;;11.77;8.90;;;;;;;23.61;85.77;94326.84;5025194;28;20241;-82
2022/08/13 11:40:05;;;;;;;11.55;9.52;;;;;;;23.56;87.18;94331.16;5029581;28;20207;-83
2022/08/13 11:42:33;;;;;;;11.52;9.32;;;;;;;23.58;86.08;94334.38;5029658;28;20183;-80
2022/08/13 11:45:00;;;;;;;11.68;10.07;;;;;;;23.25;87.60;94301.75;5029499;28;20192;-82
2022/08/13 11:47:27;;;;;;;10.85;9.82;;;;;;;23.52;87.10;94346.50;5029787;28;20714;-83
2022/08/13 11:49:54;;;;;;;13.05;10.18;;;;;;;23.43;88.49;94347.84;5029134;28;20195;-82
2022/08/13 11:52:20;;;;;;;12.52;9.93;;;;;;;23.35;88.46;94343.75;5029610;28;20261;-83